createdAt,value
2023-04-01T00:01:06.894Z,1.73
2023-04-01T00:03:34.652Z,1.80
2023-04-01T00:06:02.273Z,1.65
2023-04-01T00:08:30.048Z,1.83
2023-04-01T00:10:58.243Z,2.20
2023-04-01T00:13:27.408Z,1.75
2023-04-01T00:15:56.360Z,1.95
2023-04-01T00:18:24.174Z,1.70
2023-04-01T00:20:52.651Z,1.98
2023-04-01T00:23:20.869Z,1.90
2023-04-01T00:25:49.352Z,1.95
2023-04-01T00:28:20.578Z,2.53
2023-04-01T00:30:48.175Z,1.98
2023-04-01T00:33:16.043Z,1.60
2023-04-01T00:35:42.993Z,1.67
2023-04-01T00:38:12.280Z,2.05
2023-04-01T00:40:44.444Z,1.52
2023-04-01T00:43:19.396Z,1.73
2023-04-01T00:45:48.661Z,2.20
2023-04-01T00:48:24.169Z,1.90
2023-04-01T00:50:57.156Z,2.53
2023-04-01T00:53:24.682Z,1.75
2023-04-01T00:56:01.183Z,1.90
2023-04-01T00:58:31.020Z,1.85
2023-04-01T01:01:00.948Z,2.00
2023-04-01T01:03:29.082Z,2.05
2023-04-01T01:06:09.237Z,2.13
2023-04-01T01:08:39.108Z,2.38
2023-04-01T01:11:09.237Z,1.80
2023-04-01T01:13:58.459Z,2.40
2023-04-01T01:16:37.526Z,1.90
2023-04-01T01:19:29.402Z,1.60
2023-04-01T01:22:28.092Z,2.22
2023-04-01T01:25:27.319Z,2.20
2023-04-01T01:28:20.752Z,2.17
2023-04-01T01:31:11.279Z,2.13
2023-04-01T01:34:07.525Z,2.35
2023-04-01T01:36:35.919Z,1.80
2023-04-01T01:39:06.056Z,2.15
2023-04-01T01:41:34.617Z,1.75
2023-04-01T01:44:04.323Z,2.13
2023-04-01T01:46:32.317Z,2.10
2023-04-01T01:49:01.335Z,2.03
2023-04-01T01:51:29.066Z,2.15
2023-04-01T01:53:56.004Z,2.17
2023-04-01T01:56:28.211Z,2.20
2023-04-01T01:59:07.018Z,1.80
2023-04-01T02:01:40.495Z,1.50
2023-04-01T02:04:08.725Z,1.90
2023-04-01T02:06:41.096Z,2.33
2023-04-01T02:09:11.658Z,1.80
2023-04-01T02:11:45.158Z,1.80
2023-04-01T02:14:22.730Z,1.70
2023-04-01T02:17:01.172Z,2.55
2023-04-01T02:19:37.252Z,2.50
2023-04-01T02:22:06.869Z,2.17
2023-04-01T02:24:36.476Z,1.73
2023-04-01T02:27:04.037Z,2.25
2023-04-01T02:29:33.474Z,1.60
2023-04-01T02:32:01.043Z,1.67
2023-04-01T02:34:28.039Z,1.95
2023-04-01T02:36:57.835Z,2.00
2023-04-01T02:39:26.635Z,1.75
2023-04-01T02:41:54.314Z,1.70
2023-04-01T02:44:21.204Z,1.65
2023-04-01T02:46:48.044Z,2.00
2023-04-01T02:49:14.973Z,1.65
2023-04-01T02:51:41.812Z,1.90
2023-04-01T02:54:08.666Z,1.77
2023-04-01T02:56:37.886Z,1.50
2023-04-01T02:59:04.722Z,2.03
2023-04-01T03:01:31.734Z,1.67
2023-04-01T03:03:58.570Z,1.98
2023-04-01T03:06:25.390Z,1.77
2023-04-01T03:08:52.168Z,2.13
2023-04-01T03:11:18.991Z,2.00
2023-04-01T03:13:45.952Z,1.90
2023-04-01T03:16:12.737Z,1.60
2023-04-01T03:18:39.603Z,2.00
2023-04-01T03:21:21.911Z,1.73
2023-04-01T03:23:48.862Z,1.77
2023-04-01T03:26:16.061Z,1.73
2023-04-01T03:28:43.006Z,2.05
2023-04-01T03:31:09.901Z,1.45
2023-04-01T03:33:36.850Z,1.67
2023-04-01T03:36:07.378Z,1.70
2023-04-01T03:38:36.125Z,1.67
2023-04-01T03:41:03.424Z,1.58
2023-04-01T03:43:30.268Z,1.48
2023-04-01T03:45:58.978Z,1.27
2023-04-01T03:48:26.796Z,1.05
2023-04-01T03:50:53.669Z,1.40
2023-04-01T03:53:20.784Z,1.73
2023-04-01T03:55:47.853Z,2.38
2023-04-01T03:58:14.929Z,1.30
2023-04-01T04:00:41.761Z,1.38
2023-04-01T04:03:08.666Z,1.50
2023-04-01T04:05:36.099Z,1.40
2023-04-01T04:08:03.207Z,1.15
2023-04-01T04:10:30.315Z,1.40
2023-04-01T04:12:57.329Z,1.30
2023-04-01T04:15:24.383Z,1.48
2023-04-01T04:17:51.248Z,1.88
2023-04-01T04:20:18.456Z,1.40
2023-04-01T04:22:45.501Z,1.38
2023-04-01T04:25:12.300Z,2.00
2023-04-01T04:27:39.155Z,1.88
2023-04-01T04:30:08.155Z,1.55
2023-04-01T04:32:35.327Z,1.20
2023-04-01T04:35:02.228Z,1.23
2023-04-01T04:37:29.075Z,1.27
2023-04-01T04:39:56.030Z,1.35
2023-04-01T04:42:22.904Z,1.40
2023-04-01T04:44:49.724Z,1.42
2023-04-01T04:47:16.662Z,1.27
2023-04-01T04:49:43.503Z,1.40
2023-04-01T04:52:10.505Z,1.20
2023-04-01T04:54:37.426Z,1.20
2023-04-01T04:57:04.379Z,1.33
2023-04-01T04:59:31.987Z,1.10
2023-04-01T05:01:58.976Z,1.20
2023-04-01T05:04:25.775Z,1.20
2023-04-01T05:06:52.843Z,1.40
2023-04-01T05:09:19.653Z,1.60
2023-04-01T05:11:46.462Z,1.17
2023-04-01T05:14:17.369Z,2.28
2023-04-01T05:16:44.187Z,1.30
2023-04-01T05:19:11.232Z,1.40
2023-04-01T05:21:38.155Z,1.55
2023-04-01T05:24:08.121Z,1.65
2023-04-01T05:26:34.992Z,1.50
2023-04-01T05:29:01.784Z,1.50
2023-04-01T05:31:28.609Z,2.13
2023-04-01T05:33:56.280Z,1.60
2023-04-01T05:36:23.297Z,1.80
2023-04-01T05:38:50.268Z,1.80
2023-04-01T05:41:17.173Z,2.17
2023-04-01T05:43:44.288Z,1.70
2023-04-01T05:46:11.121Z,2.40
2023-04-01T05:48:38.038Z,2.85
2023-04-01T05:51:06.110Z,2.13
2023-04-01T05:53:33.125Z,1.70
2023-04-01T05:56:04.535Z,2.47
2023-04-01T05:58:31.934Z,1.85
2023-04-01T06:01:11.443Z,2.17
2023-04-01T06:03:42.870Z,2.45
2023-04-01T06:06:21.475Z,3.17
2023-04-01T06:08:49.691Z,2.38
2023-04-01T06:11:27.992Z,2.03
2023-04-01T06:14:28.614Z,2.45
2023-04-01T06:17:04.364Z,2.90
2023-04-01T06:20:09.833Z,2.80
2023-04-01T06:22:47.562Z,2.70
2023-04-01T06:25:38.821Z,2.75
2023-04-01T06:28:15.866Z,2.67
2023-04-01T06:30:49.449Z,3.00
2023-04-01T06:33:43.562Z,2.95
2023-04-01T06:36:23.617Z,2.25
2023-04-01T06:39:21.168Z,2.20
2023-04-01T06:42:09.881Z,3.35
2023-04-01T06:45:02.857Z,2.42
2023-04-01T06:48:06.143Z,1.98
2023-04-01T06:50:35.709Z,2.47
2023-04-01T06:53:34.430Z,2.60
2023-04-01T06:56:08.523Z,2.67
2023-04-01T06:58:44.263Z,2.63
2023-04-01T07:01:21.920Z,2.20
2023-04-01T07:03:59.678Z,2.58
2023-04-01T07:06:39.869Z,2.20
2023-04-01T07:09:13.050Z,1.90
2023-04-01T07:11:41.030Z,2.15
2023-04-01T07:14:19.732Z,2.10
2023-04-01T07:17:02.763Z,2.30
2023-04-01T07:19:38.096Z,1.90
2023-04-01T07:22:15.054Z,2.10
2023-04-01T07:24:44.330Z,2.63
2023-04-01T07:27:13.125Z,1.42
2023-04-01T07:29:40.469Z,2.35
2023-04-01T07:32:25.423Z,2.08
2023-04-01T07:35:09.516Z,2.17
2023-04-01T07:38:04.843Z,1.73
2023-04-01T07:40:44.047Z,1.40
2023-04-01T07:43:42.615Z,1.80
2023-04-01T07:46:37.464Z,2.55
2023-04-01T07:49:34.756Z,2.08
2023-04-01T07:52:15.590Z,1.83
2023-04-01T07:54:56.295Z,1.73
2023-04-01T07:57:36.373Z,1.58
2023-04-01T08:00:52.512Z,1.67
2023-04-01T08:03:44.315Z,1.67
2023-04-01T08:06:36.085Z,1.57
2023-04-01T08:09:08.167Z,1.75
2023-04-01T08:12:08.866Z,1.50
2023-04-01T08:14:48.892Z,1.90
2023-04-01T08:17:36.279Z,1.55
2023-04-01T08:20:12.806Z,1.40
2023-04-01T08:22:44.338Z,1.50
2023-04-01T08:25:19.126Z,1.60
2023-04-01T08:27:52.260Z,1.70
2023-04-01T08:30:24.231Z,1.98
2023-04-01T08:33:15.908Z,1.80
2023-04-01T08:35:47.829Z,1.95
2023-04-01T08:38:22.820Z,1.30
2023-04-01T08:41:15.331Z,1.50
2023-04-01T08:44:02.329Z,1.48
2023-04-01T08:46:38.061Z,1.45
2023-04-01T08:49:42.038Z,1.20
2023-04-01T08:52:20.883Z,1.45
2023-04-01T08:55:01.620Z,1.13
2023-04-01T08:57:40.514Z,1.02
2023-04-01T09:00:30.421Z,0.90
2023-04-01T09:03:15.904Z,1.08
2023-04-01T09:06:03.161Z,1.00
2023-04-01T09:08:42.272Z,1.23
2023-04-01T09:11:21.146Z,1.23
2023-04-01T09:13:56.930Z,1.33
2023-04-01T09:16:47.670Z,1.20
2023-04-01T09:19:39.088Z,1.45
2023-04-01T09:22:37.695Z,1.38
2023-04-01T09:25:44.585Z,4.30
2023-04-01T09:28:28.499Z,1.45
2023-04-01T09:31:45.609Z,2.42
2023-04-01T09:34:21.163Z,1.55
2023-04-01T09:37:17.279Z,1.00
2023-04-01T09:40:03.281Z,1.90
2023-04-01T09:43:05.559Z,0.90
2023-04-01T09:45:44.350Z,0.70
2023-04-01T09:48:45.536Z,1.10
2023-04-01T09:51:18.430Z,1.67
2023-04-01T09:54:14.747Z,1.45
2023-04-01T09:56:47.169Z,1.00
2023-04-01T10:02:20.582Z,1.40
2023-04-01T10:05:21.543Z,1.73
2023-04-01T10:08:23.698Z,1.27
2023-04-01T10:10:53.566Z,2.80
2023-04-01T10:13:48.516Z,1.65
2023-04-01T10:17:10.980Z,1.42
2023-04-01T10:20:03.270Z,1.60
2023-04-01T10:22:36.364Z,1.65
2023-04-01T10:25:33.982Z,7.47
2023-04-01T10:28:00.954Z,5.72
2023-04-01T10:30:54.534Z,3.58
2023-04-01T10:34:10.176Z,4.82
2023-04-01T10:36:55.516Z,7.07
2023-04-01T10:39:44.184Z,9.65
2023-04-01T10:42:38.648Z,17.35
2023-04-01T10:45:43.769Z,16.15
2023-04-01T10:48:48.023Z,14.07
2023-04-01T10:51:23.016Z,5.55
2023-04-01T10:54:17.908Z,8.45
2023-04-01T10:57:10.707Z,3.47
2023-04-01T11:02:45.291Z,1.98
2023-04-01T11:06:06.123Z,4.50
2023-04-01T11:09:03.236Z,7.35
2023-04-01T11:11:48.900Z,2.85
2023-04-01T11:14:56.867Z,6.05
2023-04-01T11:17:42.675Z,2.40
2023-04-01T11:20:39.786Z,12.70
2023-04-01T11:23:29.386Z,2.47
2023-04-01T11:26:32.658Z,6.20
2023-04-01T11:29:08.574Z,3.40
2023-04-01T11:31:41.908Z,2.40
2023-04-01T11:34:20.987Z,2.03
2023-04-01T11:37:06.256Z,1.83
2023-04-01T11:39:38.960Z,3.70
2023-04-01T11:42:37.261Z,2.90
2023-04-01T11:45:23.240Z,12.50
2023-04-01T11:48:08.155Z,7.72
2023-04-01T11:50:54.538Z,4.20
2023-04-01T11:53:29.464Z,2.70
2023-04-01T11:56:08.171Z,8.32
2023-04-01T11:58:40.915Z,1.88
2023-04-01T12:01:23.545Z,2.97
2023-04-01T12:06:53.619Z,1.98
2023-04-01T12:09:59.610Z,12.65
2023-04-01T12:13:02.218Z,5.30
2023-04-01T12:15:58.689Z,3.42
2023-04-01T12:18:31.248Z,1.98
2023-04-01T12:21:24.328Z,2.80
2023-04-01T12:24:09.244Z,2.22
2023-04-01T12:27:17.121Z,7.05
2023-04-01T12:29:52.982Z,6.03
2023-04-01T12:32:40.775Z,5.00
2023-04-01T12:35:47.439Z,8.60
2023-04-01T12:38:47.218Z,4.50
2023-04-01T12:41:41.590Z,4.50
2023-04-01T12:44:29.879Z,3.78
2023-04-01T12:47:26.661Z,4.90
2023-04-01T12:49:57.785Z,7.20
2023-04-01T12:52:49.053Z,2.72
2023-04-01T12:55:24.943Z,4.60
2023-04-01T12:57:51.697Z,1.38
2023-04-01T13:00:46.478Z,1.00
2023-04-01T13:03:43.854Z,1.10
2023-04-01T13:06:42.336Z,3.40
2023-04-01T13:09:21.219Z,2.00
2023-04-01T13:11:57.461Z,2.40
2023-04-01T13:14:32.121Z,1.30
2023-04-01T13:17:10.384Z,1.05
2023-04-01T13:19:40.564Z,1.52
2023-04-01T13:22:19.251Z,0.90
2023-04-01T13:25:04.569Z,2.03
2023-04-01T13:27:34.135Z,1.90
2023-04-01T13:30:04.066Z,1.80
2023-04-01T13:32:45.365Z,1.10
2023-04-01T13:35:35.000Z,1.23
2023-04-01T13:38:13.828Z,2.42
2023-04-01T13:41:12.352Z,4.40
2023-04-01T13:43:51.978Z,12.30
2023-04-01T13:46:38.915Z,16.92
2023-04-01T13:49:30.867Z,10.73
2023-04-01T13:51:57.621Z,1.48
2023-04-01T13:54:33.701Z,2.10
2023-04-01T13:57:18.138Z,17.08
2023-04-01T14:00:14.336Z,16.95
2023-04-01T14:03:05.906Z,11.07
2023-04-01T14:05:43.309Z,3.30
2023-04-01T14:08:29.322Z,3.28
2023-04-01T14:11:11.694Z,13.10
2023-04-01T14:14:06.491Z,6.70
2023-04-01T14:16:33.298Z,3.20
2023-04-01T14:19:32.389Z,5.43
2023-04-01T14:22:13.037Z,13.32
2023-04-01T14:24:58.489Z,8.48
2023-04-01T14:27:25.997Z,2.20
2023-04-01T14:30:26.320Z,5.60
2023-04-01T14:33:23.703Z,4.15
2023-04-01T14:36:03.068Z,5.40
2023-04-01T14:38:55.102Z,2.08
2023-04-01T14:42:12.182Z,2.00
2023-04-01T14:45:23.867Z,3.15
2023-04-01T14:48:24.181Z,2.20
2023-04-01T14:50:55.653Z,1.58
2023-04-01T14:53:36.095Z,2.38
2023-04-01T14:56:04.174Z,2.47
2023-04-01T14:58:51.281Z,2.67
2023-04-01T15:01:33.460Z,2.20
2023-04-01T15:04:21.687Z,2.80
2023-04-01T15:06:51.707Z,4.47
2023-04-01T15:09:51.965Z,3.78
2023-04-01T15:12:37.585Z,3.25
2023-04-01T15:15:24.733Z,2.85
2023-04-01T15:18:09.442Z,2.28
2023-04-01T15:21:05.192Z,1.30
2023-04-01T15:23:53.696Z,1.45
2023-04-01T15:26:31.995Z,4.60
2023-04-01T15:29:29.840Z,1.77
2023-04-01T15:32:06.185Z,1.90
2023-04-01T15:34:56.425Z,1.10
2023-04-01T15:37:42.066Z,1.00
2023-04-01T15:40:39.500Z,1.80
2023-04-01T15:43:15.445Z,1.50
2023-04-01T15:46:16.489Z,1.15
2023-04-01T15:48:46.293Z,0.90
2023-04-01T15:51:26.534Z,1.20
2023-04-01T15:54:02.060Z,0.93
2023-04-01T15:57:02.464Z,1.00
2023-04-01T15:59:48.010Z,1.50
2023-04-01T16:02:20.852Z,1.40
2023-04-01T16:05:32.761Z,1.77
2023-04-01T16:08:14.681Z,1.67
2023-04-01T16:11:20.763Z,1.10
2023-04-01T16:14:07.089Z,1.40
2023-04-01T16:16:52.564Z,1.25
2023-04-01T16:19:46.435Z,1.30
2023-04-01T16:22:24.099Z,1.13
2023-04-01T16:25:22.472Z,1.10
2023-04-01T16:28:21.275Z,1.05
2023-04-01T16:31:10.728Z,1.27
2023-04-01T16:34:00.141Z,1.30
2023-04-01T16:36:40.815Z,1.33
2023-04-01T16:39:17.106Z,1.40
2023-04-01T16:41:53.370Z,1.10
2023-04-01T16:44:28.207Z,1.10
2023-04-01T16:47:09.633Z,3.13
2023-04-01T16:49:57.606Z,8.68
2023-04-01T16:52:44.292Z,4.18
2023-04-01T16:55:18.940Z,5.40
2023-04-01T16:57:52.371Z,4.38
2023-04-01T17:00:22.409Z,7.25
2023-04-01T17:02:57.191Z,4.18
2023-04-01T17:05:50.100Z,10.15
2023-04-01T17:08:29.883Z,11.93
2023-04-01T17:11:25.837Z,3.35
2023-04-01T17:14:18.475Z,4.70
2023-04-01T17:16:56.751Z,3.58
2023-04-01T17:19:56.693Z,3.08
2023-04-01T17:22:49.440Z,1.98
2023-04-01T17:25:28.751Z,3.15
2023-04-01T17:28:22.781Z,4.65
2023-04-01T17:31:16.683Z,2.20
2023-04-01T17:34:02.198Z,3.25
2023-04-01T17:36:41.142Z,3.10
2023-04-01T17:39:35.453Z,2.00
2023-04-01T17:42:15.750Z,1.10
2023-04-01T17:44:53.805Z,2.05
2023-04-01T17:47:38.929Z,1.67
2023-04-01T17:50:21.734Z,1.95
2023-04-01T17:55:24.772Z,1.95
2023-04-01T17:58:20.214Z,1.58
2023-04-01T18:01:08.255Z,1.50
2023-04-01T18:03:55.799Z,1.55
2023-04-01T18:06:30.775Z,1.67
2023-04-01T18:09:06.741Z,1.58
2023-04-01T18:11:45.512Z,1.40
2023-04-01T18:14:40.472Z,1.75
2023-04-01T18:17:27.424Z,2.20
2023-04-01T18:20:16.025Z,2.00
2023-04-01T18:22:48.019Z,2.42
2023-04-01T18:25:20.791Z,2.05
2023-04-01T18:27:54.386Z,1.70
2023-04-01T18:30:33.073Z,2.00
2023-04-01T18:33:19.111Z,2.15
2023-04-01T18:35:54.200Z,2.85
2023-04-01T18:38:35.476Z,2.42
2023-04-01T18:41:23.370Z,2.53
2023-04-01T18:43:59.516Z,2.38
2023-04-01T18:46:39.827Z,2.63
2023-04-01T18:49:36.496Z,2.15
2023-04-01T18:52:17.564Z,2.80
2023-04-01T18:55:05.948Z,3.40
2023-04-01T18:57:57.749Z,3.53
2023-04-01T19:00:35.806Z,3.05
2023-04-01T19:03:07.763Z,2.70
2023-04-01T19:05:39.803Z,2.50
2023-04-01T19:08:15.819Z,2.90
2023-04-01T19:11:04.275Z,3.08
2023-04-01T19:14:06.416Z,3.25
2023-04-01T19:16:47.539Z,3.60
2023-04-01T19:19:42.020Z,3.30
2023-04-01T19:22:29.290Z,3.53
2023-04-01T19:25:25.654Z,3.10
2023-04-01T19:27:59.185Z,3.88
2023-04-01T19:30:38.014Z,3.45
2023-04-01T19:33:29.416Z,2.92
2023-04-01T19:36:12.536Z,3.50
2023-04-01T19:38:40.288Z,3.45
2023-04-01T19:41:46.599Z,3.67
2023-04-01T19:44:19.330Z,3.35
2023-04-01T19:46:52.504Z,3.40
2023-04-01T19:49:42.491Z,3.45
2023-04-01T19:52:25.138Z,3.78
2023-04-01T19:57:53.195Z,3.53
2023-04-01T20:02:52.069Z,3.17
2023-04-01T20:05:49.794Z,4.03
2023-04-01T20:08:48.819Z,4.20
2023-04-01T20:11:33.998Z,3.90
2023-04-01T20:14:08.678Z,3.95
2023-04-01T20:17:08.158Z,4.53
2023-04-01T20:20:01.033Z,4.38
2023-04-01T20:22:55.616Z,4.15
2023-04-01T20:25:27.849Z,4.68
2023-04-01T20:28:09.780Z,4.20
2023-04-01T20:31:00.732Z,4.25
2023-04-01T20:33:36.721Z,4.63
2023-04-01T20:36:17.114Z,4.13
2023-04-01T20:39:14.733Z,4.03
2023-04-01T20:41:56.564Z,3.95
2023-04-01T20:44:32.547Z,4.00
2023-04-01T20:47:37.807Z,3.80
2023-04-01T20:50:31.724Z,5.50
2023-04-01T20:53:10.827Z,4.60
2023-04-01T20:56:02.827Z,3.72
2023-04-01T20:58:29.565Z,4.57
2023-04-01T21:01:16.121Z,4.25
2023-04-01T21:03:56.629Z,4.20
2023-04-01T21:06:48.359Z,3.85
2023-04-01T21:09:53.548Z,3.75
2023-04-01T21:12:48.194Z,4.10
2023-04-01T21:16:03.195Z,4.13
2023-04-01T21:18:59.997Z,4.18
2023-04-01T21:21:58.845Z,4.53
2023-04-01T21:25:04.072Z,5.75
2023-04-01T21:28:04.526Z,4.80
2023-04-01T21:30:53.973Z,4.82
2023-04-01T21:33:33.073Z,5.00
2023-04-01T21:36:03.024Z,4.47
2023-04-01T21:38:57.486Z,4.50
2023-04-01T21:41:55.229Z,4.07
2023-04-01T21:44:32.020Z,4.15
2023-04-01T21:47:20.640Z,4.93
2023-04-01T21:49:53.582Z,4.07
2023-04-01T21:52:26.420Z,4.00
2023-04-01T21:55:18.469Z,4.40
2023-04-01T21:58:07.180Z,4.60
2023-04-01T22:00:50.753Z,4.03
2023-04-01T22:03:28.697Z,4.03
2023-04-01T22:06:16.636Z,4.10
2023-04-01T22:09:11.329Z,4.72
2023-04-01T22:11:56.576Z,4.50
2023-04-01T22:14:27.530Z,5.22
2023-04-01T22:17:14.686Z,5.75
2023-04-01T22:20:12.830Z,4.43
2023-04-01T22:23:13.312Z,4.80
2023-04-01T22:25:58.802Z,4.30
2023-04-01T22:28:57.205Z,4.28
2023-04-01T22:31:32.341Z,4.28
2023-04-01T22:34:24.655Z,4.25
2023-04-01T22:36:53.551Z,4.13
2023-04-01T22:39:24.612Z,4.20
2023-04-01T22:42:00.789Z,4.38
2023-04-01T22:44:54.886Z,4.28
2023-04-01T22:47:40.347Z,3.60
2023-04-01T22:50:25.466Z,3.97
2023-04-01T22:53:20.807Z,5.25
2023-04-01T22:55:52.495Z,3.58
2023-04-01T22:58:28.201Z,3.17
2023-04-01T23:01:06.343Z,3.67
2023-04-01T23:03:37.215Z,4.00
2023-04-01T23:06:05.842Z,3.55
2023-04-01T23:08:52.023Z,4.05
2023-04-01T23:12:04.095Z,3.50
2023-04-01T23:14:38.160Z,2.83
2023-04-01T23:17:16.657Z,3.15
2023-04-01T23:20:06.941Z,2.70
2023-04-01T23:22:49.177Z,2.65
2023-04-01T23:25:39.314Z,2.67
2023-04-01T23:28:15.443Z,3.10
2023-04-01T23:30:42.176Z,2.50
2023-04-01T23:33:21.153Z,2.90
2023-04-01T23:35:49.604Z,3.03
2023-04-01T23:38:17.244Z,2.72
2023-04-01T23:40:44.272Z,2.70
2023-04-01T23:43:44.719Z,2.72
2023-04-01T23:46:14.127Z,2.45
2023-04-01T23:48:44.954Z,3.30
2023-04-01T23:51:20.311Z,2.72
2023-04-01T23:53:49.186Z,2.08
2023-04-01T23:56:19.381Z,2.55
2023-04-01T23:58:49.782Z,2.78
